Johnsburg, NY

11:52 PM EDT on March 26, 2015 (GMT -0400)
Ruby Mountain View Dr, Garnet Hill | | Change Station
CLOSE
Current Station
Personal Weather Station
Location: North River, NY
Elevation: 1772 ft
Nearby Weather Stations

Elev 1772 ft 43.72 °N, 74.10 °W | Updated 6 seconds ago

Overcast
Overcast
32.7 °F
Feels Like 33 °F
N
0.9
Wind Variable Wind from WNW
Gusts 2.0 mph

Today
High -- | Low -- °F
--% Chance of Precip.
Yesterday
High -- | Low -- °F
Precip. -- in
6:49 AM 7:15 PM
Waxing Crescent, 48% visible
Pressure 29.72 in
Visibility 3.0 miles
Clouds Overcast 1000 ft
Windchill 33 °F
Dew Point 31 °F
Humidity 94%
Rainfall 0.43 in
Snow Depth Not available.
UV 0 out of 12
Pollen 3.00 out of 12
Air Quality Not available.
Flu Activity Not available.
SPECI KGFL 270314Z AUTO 31004KT 3SM BR OVC010 02/01 A2972 RMK AO2 T00170006

More Conditions Fewer Conditions

Pressure 29.72 in
Visibility 3.0 miles
Clouds Overcast 1000 ft
Windchill 33 °F
Dew Point 31 °F
Humidity 94%
Rainfall 0.43 in
Snow Depth Not available.
UV 0 out of 12
Pollen 3.00 out of 12
Air Quality Not available.
Flu Activity Not available.
SPECI KGFL 270314Z AUTO 31004KT 3SM BR OVC010 02/01 A2972 RMK AO2 T00170006

More Conditions Fewer Conditions

10-Day Weather Forecast

Almanac

Astronomy

Mar. 26, 2015 Rise Set
Actual Time
Civil Twilight
Nautical Twilight
Astronomical Twilight
Moon
Length of Visible Light
Length of Day
Tomorrow will be .
, % of the Moon is Illuminated

Today's Extremes

State Highs State Lows

Community

WunderPhotos

Upload Photos

1,808,703 photos uploaded!

WunderBlogs® & News

Nearby

Air Quality

  Air Quality AQ Index Pollutant
Not available.

Snow Depth

Station Depth Elevation

Earthquake Activity

City Distance Mag. Time & Date
Minimum magnitude displayed is 2.5.

Coastal Water Temperatures

Place Temperature

Stations

Nearby Weather Stations

Station Location Temp. Windchill Dew Point Humidity Wind Precip. Elev Updated Type